sensor_id;sensor_type;location;lat;lon;timestamp;pressure;altitude;pressure_sealevel;temperature;humidity
77351;BME280;66420;50.246;14.320;2023-07-13T00:00:20;99182.25;;;21.09;72.52
77351;BME280;66420;50.246;14.320;2023-07-13T00:03:07;99189.09;;;21.19;72.72
77351;BME280;66420;50.246;14.320;2023-07-13T00:06:01;99194.22;;;21.13;72.64
77351;BME280;66420;50.246;14.320;2023-07-13T00:08:47;99195.47;;;21.19;72.32
77351;BME280;66420;50.246;14.320;2023-07-13T00:11:34;99205.44;;;21.20;72.11
77351;BME280;66420;50.246;14.320;2023-07-13T00:14:19;99210.13;;;21.13;73.17
77351;BME280;66420;50.246;14.320;2023-07-13T00:17:04;99205.00;;;21.18;72.54
77351;BME280;66420;50.246;14.320;2023-07-13T00:19:49;99202.63;;;21.17;71.60
77351;BME280;66420;50.246;14.320;2023-07-13T00:22:34;99195.91;;;21.21;71.69
77351;BME280;66420;50.246;14.320;2023-07-13T00:25:20;99195.09;;;21.21;71.41
77351;BME280;66420;50.246;14.320;2023-07-13T00:28:06;99198.25;;;21.16;72.44
77351;BME280;66420;50.246;14.320;2023-07-13T00:30:50;99190.28;;;21.18;71.05
77351;BME280;66420;50.246;14.320;2023-07-13T00:33:35;99185.94;;;21.17;71.61
77351;BME280;66420;50.246;14.320;2023-07-13T00:36:20;99179.94;;;21.18;71.77
77351;BME280;66420;50.246;14.320;2023-07-13T00:39:05;99176.81;;;21.23;70.69
77351;BME280;66420;50.246;14.320;2023-07-13T00:41:50;99164.84;;;21.19;70.99
77351;BME280;66420;50.246;14.320;2023-07-13T00:44:35;99164.88;;;21.23;71.86
77351;BME280;66420;50.246;14.320;2023-07-13T00:47:20;99169.25;;;21.20;71.61
77351;BME280;66420;50.246;14.320;2023-07-13T00:50:07;99159.28;;;21.19;70.87
77351;BME280;66420;50.246;14.320;2023-07-13T00:52:54;99148.09;;;21.12;71.35
77351;BME280;66420;50.246;14.320;2023-07-13T00:55:40;99152.06;;;21.11;71.16
77351;BME280;66420;50.246;14.320;2023-07-13T00:58:25;99146.88;;;21.06;72.11
77351;BME280;66420;50.246;14.320;2023-07-13T01:01:12;99146.41;;;20.97;72.25
77351;BME280;66420;50.246;14.320;2023-07-13T01:03:57;99158.34;;;21.01;72.58
77351;BME280;66420;50.246;14.320;2023-07-13T01:06:43;99158.38;;;21.05;72.93
77351;BME280;66420;50.246;14.320;2023-07-13T01:09:28;99154.47;;;21.13;72.22
77351;BME280;66420;50.246;14.320;2023-07-13T01:12:12;99147.31;;;21.12;72.51
77351;BME280;66420;50.246;14.320;2023-07-13T01:14:58;99152.91;;;21.15;72.39
77351;BME280;66420;50.246;14.320;2023-07-13T01:17:44;99147.75;;;21.17;72.14
77351;BME280;66420;50.246;14.320;2023-07-13T01:20:29;99141.00;;;21.18;72.28
77351;BME280;66420;50.246;14.320;2023-07-13T01:23:13;99134.63;;;21.14;72.68
77351;BME280;66420;50.246;14.320;2023-07-13T01:25:59;99135.38;;;21.11;74.25
77351;BME280;66420;50.246;14.320;2023-07-13T01:28:44;99133.00;;;21.13;72.62
77351;BME280;66420;50.246;14.320;2023-07-13T01:31:29;99134.56;;;21.11;73.30
77351;BME280;66420;50.246;14.320;2023-07-13T01:34:14;99133.75;;;21.03;73.56
77351;BME280;66420;50.246;14.320;2023-07-13T01:36:58;99134.47;;;20.97;74.46
77351;BME280;66420;50.246;14.320;2023-07-13T01:39:43;99128.47;;;20.91;72.94
77351;BME280;66420;50.246;14.320;2023-07-13T01:42:28;99127.66;;;20.87;74.80
77351;BME280;66420;50.246;14.320;2023-07-13T01:45:12;99133.59;;;20.86;74.20
77351;BME280;66420;50.246;14.320;2023-07-13T01:47:57;99138.41;;;20.85;74.59
77351;BME280;66420;50.246;14.320;2023-07-13T01:50:42;99136.00;;;20.87;74.68
77351;BME280;66420;50.246;14.320;2023-07-13T01:53:27;99142.72;;;20.79;74.54
77351;BME280;66420;50.246;14.320;2023-07-13T01:56:12;99143.91;;;20.82;74.93
77351;BME280;66420;50.246;14.320;2023-07-13T01:58:57;99147.84;;;20.73;75.54
77351;BME280;66420;50.246;14.320;2023-07-13T02:01:41;99152.56;;;20.66;76.13
77351;BME280;66420;50.246;14.320;2023-07-13T02:04:25;99158.94;;;20.70;75.55
77351;BME280;66420;50.246;14.320;2023-07-13T02:07:10;99166.06;;;20.67;75.11
77351;BME280;66420;50.246;14.320;2023-07-13T02:09:55;99179.22;;;20.74;75.46
77351;BME280;66420;50.246;14.320;2023-07-13T02:12:41;99175.28;;;20.78;72.93
77351;BME280;66420;50.246;14.320;2023-07-13T02:15:26;99169.41;;;20.91;73.55
77351;BME280;66420;50.246;14.320;2023-07-13T02:18:10;99157.09;;;20.88;72.29
77351;BME280;66420;50.246;14.320;2023-07-13T02:20:55;99158.69;;;20.89;70.34
77351;BME280;66420;50.246;14.320;2023-07-13T02:23:41;99159.06;;;20.91;68.27
77351;BME280;66420;50.246;14.320;2023-07-13T02:26:27;99150.34;;;20.89;69.49
77351;BME280;66420;50.246;14.320;2023-07-13T02:29:12;99161.47;;;20.93;66.83
77351;BME280;66420;50.246;14.320;2023-07-13T02:31:56;99161.47;;;20.89;67.55
77351;BME280;66420;50.246;14.320;2023-07-13T02:34:41;99171.00;;;20.88;66.53
77351;BME280;66420;50.246;14.320;2023-07-13T02:37:26;99176.47;;;20.81;63.02
77351;BME280;66420;50.246;14.320;2023-07-13T02:40:11;99184.41;;;20.75;63.76
77351;BME280;66420;50.246;14.320;2023-07-13T02:42:56;99194.72;;;20.71;63.98
77351;BME280;66420;50.246;14.320;2023-07-13T02:45:45;99200.22;;;20.68;62.65
77351;BME280;66420;50.246;14.320;2023-07-13T02:48:30;99201.03;;;20.68;63.84
77351;BME280;66420;50.246;14.320;2023-07-13T02:51:15;99216.09;;;20.67;62.96
77351;BME280;66420;50.246;14.320;2023-07-13T02:54:01;99215.31;;;20.67;63.62
77351;BME280;66420;50.246;14.320;2023-07-13T02:56:46;99201.09;;;20.75;64.46
77351;BME280;66420;50.246;14.320;2023-07-13T02:59:30;99199.16;;;20.79;64.81
77351;BME280;66420;50.246;14.320;2023-07-13T03:02:16;99206.69;;;20.79;64.72
77351;BME280;66420;50.246;14.320;2023-07-13T03:05:00;99197.88;;;20.70;62.38
77351;BME280;66420;50.246;14.320;2023-07-13T03:07:46;99191.13;;;20.71;62.95
77351;BME280;66420;50.246;14.320;2023-07-13T03:10:31;99183.97;;;20.70;63.10
77351;BME280;66420;50.246;14.320;2023-07-13T03:13:16;99193.44;;;20.62;63.39
77351;BME280;66420;50.246;14.320;2023-07-13T03:16:01;99211.22;;;20.54;63.32
77351;BME280;66420;50.246;14.320;2023-07-13T03:18:46;99238.97;;;20.47;64.64
77351;BME280;66420;50.246;14.320;2023-07-13T03:21:31;99269.81;;;20.34;65.88
77351;BME280;66420;50.246;14.320;2023-07-13T03:24:16;99284.19;;;20.10;66.25
77351;BME280;66420;50.246;14.320;2023-07-13T03:27:04;99298.56;;;19.86;66.89
77351;BME280;66420;50.246;14.320;2023-07-13T03:29:49;99303.06;;;19.68;68.03
77351;BME280;66420;50.246;14.320;2023-07-13T03:32:34;99283.16;;;19.62;68.69
77351;BME280;66420;50.246;14.320;2023-07-13T03:35:18;99265.06;;;19.72;70.65
77351;BME280;66420;50.246;14.320;2023-07-13T03:38:02;99261.75;;;19.36;74.61
77351;BME280;66420;50.246;14.320;2023-07-13T03:40:47;99257.38;;;19.09;74.13
77351;BME280;66420;50.246;14.320;2023-07-13T03:43:31;99273.13;;;18.79;75.89
77351;BME280;66420;50.246;14.320;2023-07-13T03:46:17;99277.69;;;18.68;76.72
77351;BME280;66420;50.246;14.320;2023-07-13T03:49:04;99281.06;;;18.80;76.44
77351;BME280;66420;50.246;14.320;2023-07-13T03:51:50;99280.41;;;18.87;77.75
77351;BME280;66420;50.246;14.320;2023-07-13T03:54:35;99281.13;;;18.84;76.86
77351;BME280;66420;50.246;14.320;2023-07-13T03:57:20;99282.66;;;18.81;76.18
77351;BME280;66420;50.246;14.320;2023-07-13T04:00:05;99294.88;;;18.77;77.10
77351;BME280;66420;50.246;14.320;2023-07-13T04:02:50;99293.44;;;18.64;77.57
77351;BME280;66420;50.246;14.320;2023-07-13T04:05:35;99295.78;;;18.62;77.14
77351;BME280;66420;50.246;14.320;2023-07-13T04:08:21;99300.31;;;18.70;77.08
77351;BME280;66420;50.246;14.320;2023-07-13T04:11:06;99302.13;;;18.62;77.18
77351;BME280;66420;50.246;14.320;2023-07-13T04:13:51;99311.25;;;18.63;79.28
77351;BME280;66420;50.246;14.320;2023-07-13T04:16:36;99320.25;;;18.56;78.49
77351;BME280;66420;50.246;14.320;2023-07-13T04:19:21;99326.19;;;18.58;78.23
77351;BME280;66420;50.246;14.320;2023-07-13T04:22:06;99325.66;;;18.52;77.46
77351;BME280;66420;50.246;14.320;2023-07-13T04:24:51;99332.84;;;18.53;77.04
77351;BME280;66420;50.246;14.320;2023-07-13T04:27:36;99325.25;;;18.50;77.64
77351;BME280;66420;50.246;14.320;2023-07-13T04:30:20;99326.25;;;18.62;76.74
77351;BME280;66420;50.246;14.320;2023-07-13T04:33:05;99322.78;;;18.65;77.17
77351;BME280;66420;50.246;14.320;2023-07-13T04:35:51;99330.28;;;18.64;76.78
77351;BME280;66420;50.246;14.320;2023-07-13T04:38:40;99343.94;;;18.53;79.04
77351;BME280;66420;50.246;14.320;2023-07-13T04:41:26;99349.47;;;18.53;77.97
77351;BME280;66420;50.246;14.320;2023-07-13T04:44:12;99346.91;;;18.45;79.16
77351;BME280;66420;50.246;14.320;2023-07-13T04:46:57;99338.81;;;18.36;79.01
77351;BME280;66420;50.246;14.320;2023-07-13T04:49:42;99343.50;;;18.32;78.35
77351;BME280;66420;50.246;14.320;2023-07-13T04:52:26;99343.50;;;18.32;79.04
77351;BME280;66420;50.246;14.320;2023-07-13T04:55:11;99352.38;;;18.41;79.54
77351;BME280;66420;50.246;14.320;2023-07-13T04:57:56;99344.50;;;18.43;79.40
77351;BME280;66420;50.246;14.320;2023-07-13T05:00:43;99340.84;;;18.39;78.87
77351;BME280;66420;50.246;14.320;2023-07-13T05:03:29;99345.22;;;18.40;78.78
77351;BME280;66420;50.246;14.320;2023-07-13T05:06:13;99347.78;;;18.49;79.20
77351;BME280;66420;50.246;14.320;2023-07-13T05:08:58;99353.13;;;18.57;79.33
77351;BME280;66420;50.246;14.320;2023-07-13T05:11:43;99352.81;;;18.63;78.28
77351;BME280;66420;50.246;14.320;2023-07-13T05:14:28;99352.03;;;18.62;77.96
77351;BME280;66420;50.246;14.320;2023-07-13T05:17:13;99356.44;;;18.47;77.65
77351;BME280;66420;50.246;14.320;2023-07-13T05:19:58;99357.34;;;18.51;77.87
77351;BME280;66420;50.246;14.320;2023-07-13T05:22:43;99362.31;;;18.62;77.34
77351;BME280;66420;50.246;14.320;2023-07-13T05:25:27;99357.78;;;18.73;77.51
77351;BME280;66420;50.246;14.320;2023-07-13T05:28:12;99361.84;;;18.79;77.49
77351;BME280;66420;50.246;14.320;2023-07-13T05:30:57;99365.78;;;18.78;76.99
77351;BME280;66420;50.246;14.320;2023-07-13T05:33:41;99370.78;;;18.69;77.55
77351;BME280;66420;50.246;14.320;2023-07-13T05:36:26;99367.25;;;18.72;76.79
77351;BME280;66420;50.246;14.320;2023-07-13T05:39:10;99373.25;;;18.74;77.49
77351;BME280;66420;50.246;14.320;2023-07-13T05:41:56;99386.25;;;18.70;77.24
77351;BME280;66420;50.246;14.320;2023-07-13T05:44:40;99385.22;;;18.58;78.03
77351;BME280;66420;50.246;14.320;2023-07-13T05:47:25;99383.38;;;18.66;77.83
77351;BME280;66420;50.246;14.320;2023-07-13T05:50:10;99381.03;;;18.87;77.67
77351;BME280;66420;50.246;14.320;2023-07-13T05:52:55;99380.22;;;18.87;77.40
77351;BME280;66420;50.246;14.320;2023-07-13T05:55:44;99380.69;;;18.70;76.10
77351;BME280;66420;50.246;14.320;2023-07-13T05:58:31;99385.75;;;18.87;77.14
77351;BME280;66420;50.246;14.320;2023-07-13T06:01:16;99390.00;;;18.81;75.95
77351;BME280;66420;50.246;14.320;2023-07-13T06:04:02;99388.50;;;19.29;74.45
77351;BME280;66420;50.246;14.320;2023-07-13T06:06:47;99392.41;;;19.73;73.47
77351;BME280;66420;50.246;14.320;2023-07-13T06:09:32;99393.31;;;19.55;73.90
77351;BME280;66420;50.246;14.320;2023-07-13T06:12:17;99403.28;;;19.36;75.13
77351;BME280;66420;50.246;14.320;2023-07-13T06:15:02;99405.84;;;19.45;75.78
77351;BME280;66420;50.246;14.320;2023-07-13T06:17:47;99402.84;;;19.57;75.14
77351;BME280;66420;50.246;14.320;2023-07-13T06:20:34;99400.97;;;19.38;75.11
77351;BME280;66420;50.246;14.320;2023-07-13T06:23:19;99398.59;;;19.40;75.86
77351;BME280;66420;50.246;14.320;2023-07-13T06:26:04;99410.50;;;19.41;75.44
77351;BME280;66420;50.246;14.320;2023-07-13T06:28:49;99403.03;;;19.68;75.42
77351;BME280;66420;50.246;14.320;2023-07-13T06:31:33;99406.88;;;19.86;74.59
77351;BME280;66420;50.246;14.320;2023-07-13T06:34:18;99409.66;;;19.86;75.09
77351;BME280;66420;50.246;14.320;2023-07-13T06:37:03;99413.00;;;19.99;73.91
77351;BME280;66420;50.246;14.320;2023-07-13T06:39:48;99417.03;;;20.01;73.36
77351;BME280;66420;50.246;14.320;2023-07-13T06:42:33;99412.31;;;20.05;73.20
77351;BME280;66420;50.246;14.320;2023-07-13T06:45:19;99408.34;;;20.03;73.42
77351;BME280;66420;50.246;14.320;2023-07-13T06:48:05;99409.63;;;19.82;73.21
77351;BME280;66420;50.246;14.320;2023-07-13T06:50:51;99408.69;;;20.01;74.13
77351;BME280;66420;50.246;14.320;2023-07-13T06:53:37;99415.53;;;20.07;73.15
77351;BME280;66420;50.246;14.320;2023-07-13T06:56:22;99411.03;;;20.25;73.02
77351;BME280;66420;50.246;14.320;2023-07-13T06:59:07;99426.06;;;20.21;73.34
77351;BME280;66420;50.246;14.320;2023-07-13T07:01:52;99422.34;;;20.40;73.47
77351;BME280;66420;50.246;14.320;2023-07-13T07:04:37;99417.06;;;20.61;73.17
77351;BME280;66420;50.246;14.320;2023-07-13T07:07:24;99430.47;;;20.52;73.14
77351;BME280;66420;50.246;14.320;2023-07-13T07:10:09;99427.03;;;20.62;72.38
77351;BME280;66420;50.246;14.320;2023-07-13T07:12:54;99429.72;;;20.58;71.25
77351;BME280;66420;50.246;14.320;2023-07-13T07:15:39;99431.47;;;20.70;71.01
77351;BME280;66420;50.246;14.320;2023-07-13T07:18:23;99437.78;;;20.67;71.36
77351;BME280;66420;50.246;14.320;2023-07-13T07:21:08;99437.38;;;20.65;71.42
77351;BME280;66420;50.246;14.320;2023-07-13T07:23:53;99436.28;;;20.73;70.52
77351;BME280;66420;50.246;14.320;2023-07-13T07:26:37;99444.44;;;20.92;70.68
77351;BME280;66420;50.246;14.320;2023-07-13T07:29:22;99436.84;;;21.22;69.66
77351;BME280;66420;50.246;14.320;2023-07-13T07:32:07;99435.97;;;21.15;67.75
77351;BME280;66420;50.246;14.320;2023-07-13T07:34:52;99438.25;;;21.43;67.68
77351;BME280;66420;50.246;14.320;2023-07-13T07:37:37;99434.69;;;21.46;65.99
77351;BME280;66420;50.246;14.320;2023-07-13T07:40:21;99441.03;;;21.43;67.67
77351;BME280;66420;50.246;14.320;2023-07-13T07:43:11;99443.84;;;21.50;66.54
77351;BME280;66420;50.246;14.320;2023-07-13T07:45:56;99437.81;;;21.41;63.94
77351;BME280;66420;50.246;14.320;2023-07-13T07:48:41;99437.66;;;21.67;64.65
77351;BME280;66420;50.246;14.320;2023-07-13T07:51:25;99448.06;;;21.77;65.65
77351;BME280;66420;50.246;14.320;2023-07-13T07:54:10;99447.75;;;21.86;64.71
77351;BME280;66420;50.246;14.320;2023-07-13T07:56:55;99447.00;;;21.92;64.77
77351;BME280;66420;50.246;14.320;2023-07-13T07:59:40;99443.06;;;21.97;63.81
77351;BME280;66420;50.246;14.320;2023-07-13T08:02:25;99449.19;;;22.13;62.53
77351;BME280;66420;50.246;14.320;2023-07-13T08:05:10;99447.75;;;22.47;60.87
77351;BME280;66420;50.246;14.320;2023-07-13T08:07:55;99451.91;;;22.71;60.40
77351;BME280;66420;50.246;14.320;2023-07-13T08:10:40;99444.75;;;22.84;58.36
77351;BME280;66420;50.246;14.320;2023-07-13T08:13:25;99453.06;;;22.70;57.25
77351;BME280;66420;50.246;14.320;2023-07-13T08:16:09;99449.25;;;23.14;58.83
77351;BME280;66420;50.246;14.320;2023-07-13T08:18:54;99450.00;;;23.04;56.40
77351;BME280;66420;50.246;14.320;2023-07-13T08:21:39;99445.66;;;23.17;57.43
77351;BME280;66420;50.246;14.320;2023-07-13T08:24:23;99440.50;;;23.22;54.75
77351;BME280;66420;50.246;14.320;2023-07-13T08:27:09;99438.16;;;23.53;54.86
77351;BME280;66420;50.246;14.320;2023-07-13T08:29:55;99445.34;;;23.64;54.16
77351;BME280;66420;50.246;14.320;2023-07-13T08:32:40;99448.53;;;23.63;53.18
77351;BME280;66420;50.246;14.320;2023-07-13T08:35:25;99444.53;;;23.74;53.24
77351;BME280;66420;50.246;14.320;2023-07-13T08:38:10;99442.94;;;23.95;53.72
77351;BME280;66420;50.246;14.320;2023-07-13T08:40:56;99447.72;;;24.01;53.42
77351;BME280;66420;50.246;14.320;2023-07-13T08:43:41;99444.91;;;24.33;50.33
77351;BME280;66420;50.246;14.320;2023-07-13T08:46:36;99446.88;;;24.40;47.95
77351;BME280;66420;50.246;14.320;2023-07-13T08:49:23;99449.28;;;24.41;49.56
77351;BME280;66420;50.246;14.320;2023-07-13T08:52:35;99453.53;;;24.70;49.32
77351;BME280;66420;50.246;14.320;2023-07-13T08:55:20;99448.31;;;24.83;47.59
77351;BME280;66420;50.246;14.320;2023-07-13T08:58:11;99437.00;;;25.08;45.26
77351;BME280;66420;50.246;14.320;2023-07-13T09:01:21;99444.13;;;25.23;43.50
77351;BME280;66420;50.246;14.320;2023-07-13T09:04:14;99450.44;;;25.38;44.32
77351;BME280;66420;50.246;14.320;2023-07-13T09:13:10;99451.94;;;25.49;47.21
77351;BME280;66420;50.246;14.320;2023-07-13T09:15:59;99452.00;;;25.42;45.36
77351;BME280;66420;50.246;14.320;2023-07-13T09:18:48;99458.47;;;25.32;45.73
77351;BME280;66420;50.246;14.320;2023-07-13T09:21:37;99452.06;;;25.32;44.94
77351;BME280;66420;50.246;14.320;2023-07-13T09:24:38;99461.09;;;25.61;42.96
77351;BME280;66420;50.246;14.320;2023-07-13T09:27:30;99464.59;;;25.72;43.08
77351;BME280;66420;50.246;14.320;2023-07-13T09:33:00;99478.03;;;25.43;42.32
77351;BME280;66420;50.246;14.320;2023-07-13T09:35:45;99477.06;;;24.98;42.50
77351;BME280;66420;50.246;14.320;2023-07-13T09:38:30;99478.72;;;24.88;42.26
77351;BME280;66420;50.246;14.320;2023-07-13T09:44:34;99491.88;;;24.95;43.46
77351;BME280;66420;50.246;14.320;2023-07-13T09:47:28;99501.00;;;25.13;44.99
77351;BME280;66420;50.246;14.320;2023-07-13T09:50:16;99496.09;;;25.31;42.76
77351;BME280;66420;50.246;14.320;2023-07-13T09:53:01;99495.94;;;25.59;44.05
77351;BME280;66420;50.246;14.320;2023-07-13T09:55:47;99498.25;;;25.72;42.60
77351;BME280;66420;50.246;14.320;2023-07-13T09:58:34;99492.38;;;26.07;42.73
77351;BME280;66420;50.246;14.320;2023-07-13T10:01:37;99500.94;;;25.89;40.05
77351;BME280;66420;50.246;14.320;2023-07-13T10:04:29;99486.72;;;26.11;40.57
77351;BME280;66420;50.246;14.320;2023-07-13T10:07:14;99500.06;;;26.44;40.07
77351;BME280;66420;50.246;14.320;2023-07-13T10:10:01;99493.13;;;26.11;41.59
77351;BME280;66420;50.246;14.320;2023-07-13T10:12:47;99497.91;;;26.14;40.23
77351;BME280;66420;50.246;14.320;2023-07-13T10:15:32;99500.91;;;26.37;43.07
77351;BME280;66420;50.246;14.320;2023-07-13T10:18:17;99489.16;;;26.87;42.60
77351;BME280;66420;50.246;14.320;2023-07-13T10:21:21;99481.94;;;26.86;40.34
77351;BME280;66420;50.246;14.320;2023-07-13T10:24:13;99477.25;;;25.94;41.30
77351;BME280;66420;50.246;14.320;2023-07-13T10:27:16;99488.50;;;25.90;37.97
77351;BME280;66420;50.246;14.320;2023-07-13T10:30:27;99487.94;;;26.51;36.70
77351;BME280;66420;50.246;14.320;2023-07-13T10:33:12;99488.19;;;27.01;37.96
77351;BME280;66420;50.246;14.320;2023-07-13T10:36:34;99481.31;;;26.68;38.47
77351;BME280;66420;50.246;14.320;2023-07-13T10:39:23;99484.41;;;26.77;35.96
77351;BME280;66420;50.246;14.320;2023-07-13T10:42:14;99487.41;;;27.27;39.28
77351;BME280;66420;50.246;14.320;2023-07-13T10:44:59;99477.06;;;27.51;37.59
77351;BME280;66420;50.246;14.320;2023-07-13T10:47:45;99469.59;;;27.91;39.18
77351;BME280;66420;50.246;14.320;2023-07-13T10:50:31;99459.50;;;27.93;38.66
77351;BME280;66420;50.246;14.320;2023-07-13T10:53:30;99469.88;;;27.19;37.77
77351;BME280;66420;50.246;14.320;2023-07-13T10:56:24;99465.13;;;26.49;38.33
77351;BME280;66420;50.246;14.320;2023-07-13T10:59:18;99460.03;;;26.36;39.87
77351;BME280;66420;50.246;14.320;2023-07-13T11:02:36;99461.38;;;26.59;39.75
77351;BME280;66420;50.246;14.320;2023-07-13T11:05:28;99460.97;;;26.23;38.01
77351;BME280;66420;50.246;14.320;2023-07-13T11:08:34;99451.84;;;26.53;38.24
77351;BME280;66420;50.246;14.320;2023-07-13T11:11:35;99466.44;;;27.08;39.30
77351;BME280;66420;50.246;14.320;2023-07-13T11:20:31;99454.84;;;25.90;40.22
77351;BME280;66420;50.246;14.320;2023-07-13T11:23:26;99450.34;;;26.41;41.37
77351;BME280;66420;50.246;14.320;2023-07-13T11:26:43;99446.44;;;27.03;38.21
77351;BME280;66420;50.246;14.320;2023-07-13T11:29:38;99444.69;;;26.48;39.32
77351;BME280;66420;50.246;14.320;2023-07-13T11:32:30;99449.16;;;26.76;39.71
77351;BME280;66420;50.246;14.320;2023-07-13T11:35:23;99431.38;;;26.86;38.80
77351;BME280;66420;50.246;14.320;2023-07-13T11:38:23;99424.91;;;27.19;40.44
77351;BME280;66420;50.246;14.320;2023-07-13T11:44:11;99427.78;;;27.16;36.86
77351;BME280;66420;50.246;14.320;2023-07-13T11:46:57;99434.53;;;27.49;39.06
77351;BME280;66420;50.246;14.320;2023-07-13T11:49:48;99436.63;;;27.14;38.10
77351;BME280;66420;50.246;14.320;2023-07-13T11:52:36;99429.16;;;26.70;37.61
77351;BME280;66420;50.246;14.320;2023-07-13T11:55:22;99425.63;;;26.66;38.79
77351;BME280;66420;50.246;14.320;2023-07-13T11:58:09;99423.03;;;27.36;40.27
77351;BME280;66420;50.246;14.320;2023-07-13T12:00:58;99422.34;;;27.28;36.39
77351;BME280;66420;50.246;14.320;2023-07-13T12:03:45;99427.75;;;26.89;37.56
77351;BME280;66420;50.246;14.320;2023-07-13T12:06:32;99424.88;;;26.93;37.18
77351;BME280;66420;50.246;14.320;2023-07-13T12:09:17;99423.69;;;26.26;37.74
77351;BME280;66420;50.246;14.320;2023-07-13T12:12:11;99437.22;;;26.34;37.28
77351;BME280;66420;50.246;14.320;2023-07-13T12:14:56;99421.25;;;27.22;40.07
77351;BME280;66420;50.246;14.320;2023-07-13T12:17:41;99424.75;;;27.57;37.35
77351;BME280;66420;50.246;14.320;2023-07-13T12:20:27;99424.16;;;27.42;37.19
77351;BME280;66420;50.246;14.320;2023-07-13T12:23:24;99421.88;;;27.33;38.47
77351;BME280;66420;50.246;14.320;2023-07-13T12:26:10;99426.72;;;27.06;37.14
77351;BME280;66420;50.246;14.320;2023-07-13T12:28:56;99425.78;;;26.86;37.96
77351;BME280;66420;50.246;14.320;2023-07-13T12:31:46;99425.09;;;27.05;38.80
77351;BME280;66420;50.246;14.320;2023-07-13T12:34:30;99424.09;;;26.92;38.45
77351;BME280;66420;50.246;14.320;2023-07-13T12:37:15;99427.13;;;27.05;39.04
77351;BME280;66420;50.246;14.320;2023-07-13T12:40:01;99436.44;;;26.64;38.29
77351;BME280;66420;50.246;14.320;2023-07-13T12:42:49;99432.38;;;26.69;38.92
77351;BME280;66420;50.246;14.320;2023-07-13T12:45:35;99428.13;;;26.20;37.55
77351;BME280;66420;50.246;14.320;2023-07-13T12:48:20;99434.97;;;26.56;39.90
77351;BME280;66420;50.246;14.320;2023-07-13T12:51:10;99434.28;;;26.79;36.39
77351;BME280;66420;50.246;14.320;2023-07-13T12:54:15;99432.38;;;26.69;38.93
77351;BME280;66420;50.246;14.320;2023-07-13T12:57:01;99437.03;;;26.11;38.38
77351;BME280;66420;50.246;14.320;2023-07-13T12:59:52;99446.53;;;26.24;40.19
77351;BME280;66420;50.246;14.320;2023-07-13T13:02:37;99452.00;;;26.38;39.72
77351;BME280;66420;50.246;14.320;2023-07-13T13:05:22;99440.53;;;26.26;40.61
77351;BME280;66420;50.246;14.320;2023-07-13T13:08:11;99436.97;;;26.15;38.62
77351;BME280;66420;50.246;14.320;2023-07-13T13:10:56;99442.72;;;26.00;38.46
77351;BME280;66420;50.246;14.320;2023-07-13T13:13:41;99441.00;;;26.14;39.56
77351;BME280;66420;50.246;14.320;2023-07-13T13:19:17;99434.22;;;26.52;37.96
77351;BME280;66420;50.246;14.320;2023-07-13T13:22:02;99435.47;;;26.78;38.86
77351;BME280;66420;50.246;14.320;2023-07-13T13:24:47;99433.59;;;27.02;39.13
77351;BME280;66420;50.246;14.320;2023-07-13T13:27:32;99430.84;;;27.25;40.30
77351;BME280;66420;50.246;14.320;2023-07-13T13:30:17;99431.47;;;27.36;39.04
77351;BME280;66420;50.246;14.320;2023-07-13T13:33:02;99433.34;;;27.19;36.33
77351;BME280;66420;50.246;14.320;2023-07-13T13:35:48;99424.31;;;27.31;39.98
77351;BME280;66420;50.246;14.320;2023-07-13T13:38:33;99427.56;;;27.57;39.45
77351;BME280;66420;50.246;14.320;2023-07-13T13:41:18;99418.00;;;27.24;38.72
77351;BME280;66420;50.246;14.320;2023-07-13T13:44:04;99425.69;;;26.93;36.59
77351;BME280;66420;50.246;14.320;2023-07-13T13:46:52;99410.13;;;27.15;38.14
77351;BME280;66420;50.246;14.320;2023-07-13T13:49:38;99406.31;;;27.56;37.38
77351;BME280;66420;50.246;14.320;2023-07-13T13:52:24;99413.53;;;27.80;37.31
77351;BME280;66420;50.246;14.320;2023-07-13T13:55:18;99409.91;;;27.29;36.73
77351;BME280;66420;50.246;14.320;2023-07-13T13:58:03;99401.16;;;27.51;39.41
77351;BME280;66420;50.246;14.320;2023-07-13T14:00:48;99406.78;;;27.51;37.26
77351;BME280;66420;50.246;14.320;2023-07-13T14:03:34;99398.34;;;27.51;35.77
77351;BME280;66420;50.246;14.320;2023-07-13T14:06:19;99403.56;;;27.25;35.88
77351;BME280;66420;50.246;14.320;2023-07-13T14:09:04;99403.88;;;27.58;36.86
77351;BME280;66420;50.246;14.320;2023-07-13T14:11:50;99392.41;;;27.18;36.89
77351;BME280;66420;50.246;14.320;2023-07-13T14:14:36;99396.78;;;27.50;38.10
77351;BME280;66420;50.246;14.320;2023-07-13T14:17:21;99387.69;;;27.39;36.64
77351;BME280;66420;50.246;14.320;2023-07-13T14:20:11;99394.31;;;27.52;38.42
77351;BME280;66420;50.246;14.320;2023-07-13T14:22:56;99387.66;;;26.85;36.59
77351;BME280;66420;50.246;14.320;2023-07-13T14:25:41;99394.31;;;26.98;37.06
77351;BME280;66420;50.246;14.320;2023-07-13T14:28:27;99390.13;;;27.10;37.50
77351;BME280;66420;50.246;14.320;2023-07-13T14:31:14;99392.44;;;26.58;36.70
77351;BME280;66420;50.246;14.320;2023-07-13T14:34:00;99388.50;;;26.85;38.13
77351;BME280;66420;50.246;14.320;2023-07-13T14:36:46;99382.38;;;26.90;36.29
77351;BME280;66420;50.246;14.320;2023-07-13T14:39:33;99383.97;;;27.18;36.56
77351;BME280;66420;50.246;14.320;2023-07-13T14:42:18;99391.28;;;26.82;37.83
77351;BME280;66420;50.246;14.320;2023-07-13T14:45:03;99392.28;;;26.68;38.55
77351;BME280;66420;50.246;14.320;2023-07-13T14:47:47;99390.50;;;26.81;37.90
77351;BME280;66420;50.246;14.320;2023-07-13T14:50:33;99395.69;;;26.86;37.56
77351;BME280;66420;50.246;14.320;2023-07-13T14:53:19;99386.38;;;26.93;37.77
77351;BME280;66420;50.246;14.320;2023-07-13T14:56:10;99388.22;;;26.73;36.31